Time;durP1;ratioP1;P1;durP2;ratioP2;P2;SDS_P1;SDS_P2;PMS_P1;PMS_P2;Temp;Humidity;BMP_temperature;BMP_pressure;BME280_temperature;BME280_humidity;BME280_pressure;Samples;Min_cycle;Max_cycle;Signal;HPM_P1;HPM_P2
2022/03/31 00:00:49;;;;;;;;;;;5.00;99.90;;;;;;5017652;28;19991;-80
2022/03/31 00:03:17;;;;;;;;;;;4.90;99.90;;;;;;5018017;28;19928;-80
2022/03/31 00:05:44;;;;;;;;;;;5.00;99.90;;;;;;5033542;28;20066;-80
2022/03/31 00:08:10;;;;;;;;;;;5.00;99.90;;;;;;5033855;28;19921;-79
2022/03/31 00:10:37;;;;;;;;;;;5.00;99.90;;;;;;5034926;28;19925;-79
2022/03/31 00:13:04;;;;;;;;;;;5.00;99.90;;;;;;5052020;28;20361;-83
2022/03/31 00:15:31;;;;;;;;;;;5.00;99.90;;;;;;5033995;28;19967;-79
2022/03/31 00:17:58;;;;;;;;;;;4.90;99.90;;;;;;5034598;28;20304;-78
2022/03/31 00:20:25;;;;;;;;;;;4.90;99.90;;;;;;5034282;28;19928;-80
2022/03/31 00:22:50;;;;;;;;;;;4.90;99.90;;;;;;4998136;28;19925;-79
2022/03/31 00:25:16;;;;;;;;;;;4.90;99.90;;;;;;5025694;28;19990;-79
2022/03/31 00:27:41;;;;;;;;;;;4.90;99.90;;;;;;5034633;28;19920;-79
2022/03/31 00:30:09;;;;;;;;;;;4.90;99.90;;;;;;5017148;28;19928;-79
2022/03/31 00:32:35;;;;;;;;;;;4.90;99.90;;;;;;5034019;28;20401;-79
2022/03/31 00:35:01;;;;;;;;;;;5.00;99.90;;;;;;5051735;28;19967;-81
2022/03/31 00:37:27;;;;;;;;;;;5.10;99.90;;;;;;5011832;28;19928;-79
2022/03/31 00:39:53;;;;;;;;;;;5.00;99.90;;;;;;5034685;28;20043;-80
2022/03/31 00:42:19;;;;;;;;;;;5.00;99.90;;;;;;5001158;28;19952;-80
2022/03/31 00:44:45;;;;;;;;;;;4.90;99.90;;;;;;5017666;28;19975;-79
2022/03/31 00:47:10;;;;;;;;;;;4.90;99.90;;;;;;5032654;28;19959;-80
2022/03/31 00:49:36;;;;;;;;;;;4.90;99.90;;;;;;5014825;28;19921;-80
2022/03/31 00:52:02;;;;;;;;;;;4.90;99.90;;;;;;5017078;28;19967;-79
2022/03/31 00:54:28;;;;;;;;;;;4.90;99.90;;;;;;5033869;28;19920;-79
2022/03/31 00:56:55;;;;;;;;;;;4.90;99.90;;;;;;5033182;28;19928;-79
2022/03/31 00:59:21;;;;;;;;;;;4.90;99.90;;;;;;5033561;28;20291;-79
2022/03/31 01:01:47;;;;;;;;;;;4.90;99.90;;;;;;5017813;28;19921;-79
2022/03/31 01:04:13;;;;;;;;;;;4.90;99.90;;;;;;5001034;28;19931;-81
2022/03/31 01:06:39;;;;;;;;;;;4.80;99.90;;;;;;5033322;28;19921;-79
2022/03/31 01:09:05;;;;;;;;;;;4.80;99.90;;;;;;5017645;28;19975;-79
2022/03/31 01:11:31;;;;;;;;;;;4.70;99.90;;;;;;5033706;28;19971;-79
2022/03/31 01:13:58;;;;;;;;;;;4.80;99.90;;;;;;5017328;28;19920;-80
2022/03/31 01:16:23;;;;;;;;;;;4.80;99.90;;;;;;5034270;28;20396;-79
2022/03/31 01:18:52;;;;;;;;;;;4.90;99.90;;;;;;5037660;28;19956;-80
2022/03/31 01:21:18;;;;;;;;;;;4.90;99.90;;;;;;5020526;28;19962;-80
2022/03/31 01:23:44;;;;;;;;;;;4.90;99.90;;;;;;5021343;28;20078;-79
2022/03/31 01:26:10;;;;;;;;;;;4.90;99.90;;;;;;5036960;28;19920;-82
2022/03/31 01:28:40;;;;;;;;;;;4.80;99.90;;;;;;5050811;28;19984;-80
2022/03/31 01:31:06;;;;;;;;;;;4.80;99.90;;;;;;5037523;28;20035;-79
2022/03/31 01:33:32;;;;;;;;;;;4.90;99.90;;;;;;5018163;28;20023;-79
2022/03/31 01:35:59;;;;;;;;;;;4.90;99.90;;;;;;5037423;28;19928;-79
2022/03/31 01:38:25;;;;;;;;;;;4.90;99.90;;;;;;5020136;28;19924;-80
2022/03/31 01:40:50;;;;;;;;;;;4.90;99.90;;;;;;5035195;28;19936;-80
2022/03/31 01:43:16;;;;;;;;;;;4.90;99.90;;;;;;5018783;28;20285;-80
2022/03/31 01:45:41;;;;;;;;;;;4.90;99.90;;;;;;5036074;28;19921;-80
2022/03/31 01:48:07;;;;;;;;;;;5.10;99.90;;;;;;5036918;28;19921;-80
2022/03/31 01:50:33;;;;;;;;;;;5.10;99.90;;;;;;5036111;28;20800;-79
2022/03/31 01:52:59;;;;;;;;;;;5.10;99.90;;;;;;5036577;28;20011;-79
2022/03/31 01:55:24;;;;;;;;;;;5.20;99.90;;;;;;5037059;28;19990;-80
2022/03/31 01:57:50;;;;;;;;;;;5.10;99.90;;;;;;5035743;28;19974;-80
2022/03/31 02:00:16;;;;;;;;;;;5.10;99.90;;;;;;5036328;28;20012;-80
2022/03/31 02:02:42;;;;;;;;;;;5.00;99.90;;;;;;5036405;28;19921;-80
2022/03/31 02:05:07;;;;;;;;;;;5.00;99.90;;;;;;5020068;28;19920;-79
2022/03/31 02:07:34;;;;;;;;;;;5.00;99.90;;;;;;5036127;28;19935;-80
2022/03/31 02:10:00;;;;;;;;;;;5.00;99.90;;;;;;5036386;28;19921;-79
2022/03/31 02:12:25;;;;;;;;;;;5.00;99.90;;;;;;5035994;28;19927;-80
2022/03/31 02:14:51;;;;;;;;;;;4.90;99.90;;;;;;5036166;28;19927;-80
2022/03/31 02:17:17;;;;;;;;;;;4.90;99.90;;;;;;5036550;28;19921;-80
2022/03/31 02:19:43;;;;;;;;;;;4.90;99.90;;;;;;5054218;28;20031;-80
2022/03/31 02:22:08;;;;;;;;;;;4.80;99.90;;;;;;5019478;28;19928;-80
2022/03/31 02:24:35;;;;;;;;;;;4.80;99.90;;;;;;5036134;28;20044;-79
2022/03/31 02:27:01;;;;;;;;;;;4.70;99.90;;;;;;5036110;28;19921;-80
2022/03/31 02:29:26;;;;;;;;;;;4.70;99.90;;;;;;5034696;28;19920;-79
2022/03/31 02:31:52;;;;;;;;;;;4.70;99.90;;;;;;5019678;28;19928;-79
2022/03/31 02:34:17;;;;;;;;;;;4.60;99.90;;;;;;5032400;28;19924;-82
2022/03/31 02:36:44;;;;;;;;;;;4.60;99.90;;;;;;5031833;28;19933;-79
2022/03/31 02:39:10;;;;;;;;;;;4.60;99.90;;;;;;5032883;28;19921;-81
2022/03/31 02:41:35;;;;;;;;;;;4.70;99.90;;;;;;5030163;28;19921;-79
2022/03/31 02:44:02;;;;;;;;;;;4.50;99.90;;;;;;5016044;28;19966;-80
2022/03/31 02:46:28;;;;;;;;;;;4.50;99.90;;;;;;5015767;28;19925;-79
2022/03/31 02:48:55;;;;;;;;;;;4.50;99.90;;;;;;5032677;28;19932;-81
2022/03/31 02:51:21;;;;;;;;;;;4.60;99.90;;;;;;5032886;28;19925;-82
2022/03/31 02:56:31;;;;;;;;;;;4.60;99.90;;;;;;5031642;28;19971;-80
2022/03/31 02:58:57;;;;;;;;;;;4.60;99.90;;;;;;5013215;28;19921;-79
2022/03/31 03:01:23;;;;;;;;;;;4.60;99.90;;;;;;5031300;28;19969;-81
2022/03/31 03:03:50;;;;;;;;;;;4.60;99.90;;;;;;5030389;28;19921;-79
2022/03/31 03:06:16;;;;;;;;;;;4.60;99.90;;;;;;5029950;28;19925;-79
2022/03/31 03:08:41;;;;;;;;;;;4.60;99.90;;;;;;5015529;28;20025;-80
2022/03/31 03:11:08;;;;;;;;;;;4.60;99.90;;;;;;5032341;28;19928;-80
2022/03/31 03:13:35;;;;;;;;;;;4.60;99.90;;;;;;5031026;28;19936;-80
2022/03/31 03:16:05;;;;;;;;;;;4.60;99.90;;;;;;5032117;28;20388;-80
2022/03/31 03:18:31;;;;;;;;;;;4.60;99.90;;;;;;5033299;28;19921;-80
2022/03/31 03:20:57;;;;;;;;;;;4.60;99.90;;;;;;5032830;28;19920;-80
2022/03/31 03:23:23;;;;;;;;;;;4.50;99.90;;;;;;5031873;28;20416;-81
2022/03/31 03:25:48;;;;;;;;;;;4.50;99.90;;;;;;5031616;28;20007;-80
2022/03/31 03:28:14;;;;;;;;;;;4.40;99.90;;;;;;5031659;28;19924;-80
2022/03/31 03:30:40;;;;;;;;;;;4.50;99.90;;;;;;5031832;28;19921;-80
2022/03/31 03:33:06;;;;;;;;;;;4.50;99.90;;;;;;5031643;28;19921;-81
2022/03/31 03:35:31;;;;;;;;;;;4.40;99.90;;;;;;5030440;28;19927;-80
2022/03/31 03:37:57;;;;;;;;;;;4.40;99.90;;;;;;5030314;28;20023;-80
2022/03/31 03:40:23;;;;;;;;;;;4.30;99.90;;;;;;5029899;28;19924;-80
2022/03/31 03:42:49;;;;;;;;;;;4.20;99.90;;;;;;5014656;28;19968;-80
2022/03/31 03:45:16;;;;;;;;;;;4.30;99.90;;;;;;5031764;28;19932;-81
2022/03/31 03:47:42;;;;;;;;;;;4.20;99.90;;;;;;5031195;28;19921;-81
2022/03/31 03:50:08;;;;;;;;;;;4.20;99.90;;;;;;5030697;28;19931;-80
2022/03/31 03:52:34;;;;;;;;;;;4.20;99.90;;;;;;5029628;28;19925;-81
2022/03/31 03:55:00;;;;;;;;;;;4.10;99.90;;;;;;4995806;28;19949;-81
2022/03/31 03:57:25;;;;;;;;;;;4.10;99.90;;;;;;5025486;28;19921;-81
2022/03/31 03:59:51;;;;;;;;;;;4.00;99.90;;;;;;5031317;28;19986;-81
2022/03/31 04:02:17;;;;;;;;;;;4.00;99.90;;;;;;5030507;28;19921;-81
2022/03/31 04:04:42;;;;;;;;;;;4.00;99.90;;;;;;5031594;28;19940;-81
2022/03/31 04:07:08;;;;;;;;;;;4.00;99.90;;;;;;5031334;28;19931;-80
2022/03/31 04:09:33;;;;;;;;;;;3.80;99.90;;;;;;5031062;28;20070;-80
2022/03/31 04:11:59;;;;;;;;;;;3.80;99.90;;;;;;5026140;28;19928;-80
2022/03/31 04:14:24;;;;;;;;;;;3.70;99.90;;;;;;4995669;28;19925;-80
2022/03/31 04:16:50;;;;;;;;;;;3.60;99.90;;;;;;5005608;28;20014;-80
2022/03/31 04:19:16;;;;;;;;;;;3.50;99.90;;;;;;5030843;28;19921;-80
2022/03/31 04:21:41;;;;;;;;;;;3.40;99.90;;;;;;5031007;28;19921;-80
2022/03/31 04:24:07;;;;;;;;;;;3.30;99.90;;;;;;5029745;28;20392;-80
2022/03/31 04:26:33;;;;;;;;;;;3.20;99.90;;;;;;5013620;28;19933;-80
2022/03/31 04:29:01;;;;;;;;;;;3.20;99.90;;;;;;5031405;28;19975;-80
2022/03/31 04:31:26;;;;;;;;;;;3.30;99.90;;;;;;5031227;28;19928;-80
2022/03/31 04:33:52;;;;;;;;;;;3.40;99.90;;;;;;5029637;28;20285;-80
2022/03/31 04:36:18;;;;;;;;;;;3.40;99.90;;;;;;5002588;28;19952;-80
2022/03/31 04:38:45;;;;;;;;;;;3.50;99.90;;;;;;5014107;28;19971;-80
2022/03/31 04:41:10;;;;;;;;;;;3.60;99.90;;;;;;5030754;28;19968;-79
2022/03/31 04:43:36;;;;;;;;;;;3.50;99.90;;;;;;5026119;28;19965;-79
2022/03/31 04:46:01;;;;;;;;;;;3.60;99.90;;;;;;4997345;28;19932;-79
2022/03/31 04:48:29;;;;;;;;;;;3.70;99.90;;;;;;5030983;28;19931;-79
2022/03/31 04:50:54;;;;;;;;;;;3.70;99.90;;;;;;5029951;28;19931;-79
2022/03/31 04:53:20;;;;;;;;;;;3.60;99.90;;;;;;5015673;28;20361;-79
2022/03/31 04:55:45;;;;;;;;;;;3.60;99.90;;;;;;5033577;28;19921;-80
2022/03/31 04:58:11;;;;;;;;;;;3.70;99.90;;;;;;5017097;28;20388;-80
2022/03/31 05:00:37;;;;;;;;;;;3.70;99.90;;;;;;5025947;28;19992;-79
2022/03/31 05:03:02;;;;;;;;;;;3.70;99.90;;;;;;5017187;28;19931;-79
2022/03/31 05:05:28;;;;;;;;;;;3.70;99.90;;;;;;5035086;28;19932;-80
2022/03/31 05:07:54;;;;;;;;;;;3.70;99.90;;;;;;5017646;28;19929;-79
2022/03/31 05:10:19;;;;;;;;;;;3.70;99.90;;;;;;5001035;28;20297;-79
2022/03/31 05:12:45;;;;;;;;;;;3.70;99.90;;;;;;5010258;28;19960;-80
2022/03/31 05:15:11;;;;;;;;;;;3.70;99.90;;;;;;5015317;28;20340;-79
2022/03/31 05:17:37;;;;;;;;;;;3.70;99.90;;;;;;5034698;28;19920;-80
2022/03/31 05:20:07;;;;;;;;;;;3.70;99.90;;;;;;5034873;28;19925;-80
2022/03/31 05:22:33;;;;;;;;;;;3.70;99.90;;;;;;5033291;28;19921;-80
2022/03/31 05:24:59;;;;;;;;;;;3.70;99.90;;;;;;5016814;28;19928;-80
2022/03/31 05:27:25;;;;;;;;;;;3.80;99.90;;;;;;5034319;28;19921;-80
2022/03/31 05:29:50;;;;;;;;;;;3.70;99.90;;;;;;5033488;28;19928;-79
2022/03/31 05:32:16;;;;;;;;;;;3.70;99.90;;;;;;5033524;28;20018;-77
2022/03/31 05:34:41;;;;;;;;;;;3.70;99.90;;;;;;5053181;28;20365;-77
2022/03/31 05:37:07;;;;;;;;;;;3.80;99.90;;;;;;5035646;28;20002;-77
2022/03/31 05:39:33;;;;;;;;;;;3.80;99.90;;;;;;5037051;28;20351;-79
2022/03/31 05:41:59;;;;;;;;;;;3.80;99.90;;;;;;5038258;28;19921;-77
2022/03/31 05:44:24;;;;;;;;;;;3.80;99.90;;;;;;5055117;28;20250;-77
2022/03/31 05:46:50;;;;;;;;;;;3.70;99.90;;;;;;5034142;28;20024;-78
2022/03/31 05:49:16;;;;;;;;;;;3.80;99.90;;;;;;5036482;28;19921;-77
2022/03/31 05:51:42;;;;;;;;;;;3.80;99.90;;;;;;5020971;28;19991;-76
2022/03/31 05:54:07;;;;;;;;;;;3.80;99.90;;;;;;5003807;28;20019;-76
2022/03/31 05:56:34;;;;;;;;;;;3.80;99.90;;;;;;5053107;28;20292;-76
2022/03/31 05:59:00;;;;;;;;;;;3.80;99.90;;;;;;5031978;28;19947;-78
2022/03/31 06:01:25;;;;;;;;;;;3.90;99.90;;;;;;5033365;28;20361;-77
2022/03/31 06:03:52;;;;;;;;;;;3.90;99.90;;;;;;5027623;28;19921;-78
2022/03/31 06:06:17;;;;;;;;;;;4.00;99.90;;;;;;5044712;28;19931;-76
2022/03/31 06:08:43;;;;;;;;;;;4.00;99.90;;;;;;5050563;28;20159;-78
2022/03/31 06:11:09;;;;;;;;;;;4.10;99.90;;;;;;5073719;28;19983;-78
2022/03/31 06:13:34;;;;;;;;;;;4.00;99.90;;;;;;5056866;28;19920;-77
2022/03/31 06:16:00;;;;;;;;;;;4.10;99.90;;;;;;5044565;28;20334;-78
2022/03/31 06:18:26;;;;;;;;;;;4.10;99.90;;;;;;5019337;28;19920;-78
2022/03/31 06:20:52;;;;;;;;;;;4.10;99.90;;;;;;5019389;28;20400;-77
2022/03/31 06:23:17;;;;;;;;;;;4.10;99.90;;;;;;5036298;28;19925;-78
2022/03/31 06:25:44;;;;;;;;;;;4.10;99.90;;;;;;5035660;28;19970;-78
2022/03/31 06:28:10;;;;;;;;;;;4.10;99.90;;;;;;5036368;28;19920;-77
2022/03/31 06:30:36;;;;;;;;;;;4.10;99.90;;;;;;5035719;28;19944;-77
2022/03/31 06:33:02;;;;;;;;;;;4.10;99.90;;;;;;5018414;28;19920;-79
2022/03/31 06:35:28;;;;;;;;;;;4.10;99.90;;;;;;5035931;28;20003;-78
2022/03/31 06:37:54;;;;;;;;;;;4.10;99.90;;;;;;5035822;28;19983;-77
2022/03/31 06:40:20;;;;;;;;;;;4.10;99.90;;;;;;5053431;28;20020;-77
2022/03/31 06:42:46;;;;;;;;;;;4.10;99.90;;;;;;5044304;28;20340;-79
2022/03/31 06:45:14;;;;;;;;;;;4.20;99.90;;;;;;5019630;28;19920;-78
2022/03/31 06:47:40;;;;;;;;;;;4.10;99.90;;;;;;5031857;28;20366;-78
2022/03/31 06:50:06;;;;;;;;;;;4.10;99.90;;;;;;5044568;28;20020;-78
2022/03/31 06:52:31;;;;;;;;;;;4.10;99.90;;;;;;5025852;28;19921;-79
2022/03/31 06:54:57;;;;;;;;;;;4.00;99.90;;;;;;5014079;28;19970;-77
2022/03/31 06:57:23;;;;;;;;;;;4.00;99.90;;;;;;5024429;28;20471;-81
2022/03/31 06:59:49;;;;;;;;;;;4.10;99.90;;;;;;5024663;28;19974;-81
2022/03/31 07:02:14;;;;;;;;;;;4.10;99.90;;;;;;5025900;28;19921;-79
2022/03/31 07:04:40;;;;;;;;;;;4.10;99.90;;;;;;5010890;28;19921;-79
2022/03/31 07:07:06;;;;;;;;;;;4.20;99.90;;;;;;5025385;28;19927;-79
2022/03/31 07:09:31;;;;;;;;;;;4.30;99.90;;;;;;5029024;28;19921;-78
2022/03/31 07:11:57;;;;;;;;;;;4.30;99.90;;;;;;5015408;28;19927;-78
2022/03/31 07:14:22;;;;;;;;;;;4.40;99.90;;;;;;5031743;28;19925;-79
2022/03/31 07:16:48;;;;;;;;;;;4.50;99.90;;;;;;5031532;28;19933;-80
2022/03/31 07:19:14;;;;;;;;;;;4.50;99.90;;;;;;5018443;28;19976;-79
2022/03/31 07:21:39;;;;;;;;;;;4.60;99.90;;;;;;5018932;28;19972;-77
2022/03/31 07:24:05;;;;;;;;;;;4.60;99.90;;;;;;5034784;28;19968;-77
2022/03/31 07:26:31;;;;;;;;;;;4.60;99.90;;;;;;5035379;28;19925;-77
2022/03/31 07:28:57;;;;;;;;;;;4.70;99.90;;;;;;5034427;28;19921;-78
2022/03/31 07:31:24;;;;;;;;;;;4.70;99.90;;;;;;5034703;28;20424;-82
2022/03/31 07:33:49;;;;;;;;;;;4.70;99.90;;;;;;5031242;28;19920;-80
2022/03/31 07:36:15;;;;;;;;;;;4.70;99.90;;;;;;5026346;28;19971;-78
2022/03/31 07:38:41;;;;;;;;;;;4.60;99.90;;;;;;5024814;28;20346;-81
2022/03/31 07:41:06;;;;;;;;;;;4.70;99.90;;;;;;5026273;28;19927;-78
2022/03/31 07:43:32;;;;;;;;;;;4.60;99.90;;;;;;5030709;28;19921;-79
2022/03/31 07:45:58;;;;;;;;;;;4.70;99.90;;;;;;5024683;28;19921;-79
2022/03/31 07:48:24;;;;;;;;;;;4.70;99.90;;;;;;5029798;28;19924;-79
2022/03/31 07:50:50;;;;;;;;;;;4.80;99.90;;;;;;5012204;28;19928;-79
2022/03/31 07:53:17;;;;;;;;;;;4.70;99.90;;;;;;5022875;28;19925;-78
2022/03/31 07:55:43;;;;;;;;;;;4.80;99.90;;;;;;5052561;28;19921;-79
2022/03/31 07:58:08;;;;;;;;;;;4.70;99.90;;;;;;5047630;28;20612;-78
2022/03/31 08:00:34;;;;;;;;;;;4.70;99.90;;;;;;5033841;28;20293;-79
2022/03/31 08:03:01;;;;;;;;;;;4.70;99.90;;;;;;5034328;28;19924;-78
2022/03/31 08:05:27;;;;;;;;;;;4.70;99.90;;;;;;5034046;28;19921;-78
2022/03/31 08:07:53;;;;;;;;;;;4.60;99.90;;;;;;5017833;28;19932;-78
2022/03/31 08:10:19;;;;;;;;;;;4.50;99.90;;;;;;5034023;28;19951;-79
2022/03/31 08:12:46;;;;;;;;;;;4.50;99.90;;;;;;5034546;28;19921;-78
2022/03/31 08:15:14;;;;;;;;;;;4.50;99.90;;;;;;5017819;28;20348;-79
2022/03/31 08:17:39;;;;;;;;;;;4.50;99.90;;;;;;5034225;28;19982;-78
2022/03/31 08:20:06;;;;;;;;;;;4.50;99.90;;;;;;5034542;28;20404;-79
2022/03/31 08:22:32;;;;;;;;;;;4.40;99.90;;;;;;5024322;28;19921;-79
2022/03/31 08:24:58;;;;;;;;;;;4.40;99.90;;;;;;5014354;28;19925;-79
2022/03/31 08:27:23;;;;;;;;;;;4.40;99.90;;;;;;5028868;28;19921;-79
2022/03/31 08:29:49;;;;;;;;;;;4.30;99.90;;;;;;5037215;28;19927;-79
2022/03/31 08:32:15;;;;;;;;;;;4.30;99.90;;;;;;5033171;28;20385;-79
2022/03/31 08:34:41;;;;;;;;;;;4.30;99.90;;;;;;5008196;28;19968;-79
2022/03/31 08:37:06;;;;;;;;;;;4.30;99.90;;;;;;5037524;28;19951;-79
2022/03/31 08:39:32;;;;;;;;;;;4.30;99.90;;;;;;5017963;28;19925;-79
2022/03/31 08:41:58;;;;;;;;;;;4.30;99.90;;;;;;5029190;28;19925;-79
2022/03/31 08:44:23;;;;;;;;;;;4.30;99.90;;;;;;5034317;28;19920;-80
2022/03/31 08:46:50;;;;;;;;;;;4.20;99.90;;;;;;5037235;28;19921;-84
2022/03/31 08:49:16;;;;;;;;;;;4.20;99.90;;;;;;5012844;28;19921;-79
2022/03/31 08:51:45;;;;;;;;;;;4.30;99.90;;;;;;5034671;28;19920;-80
2022/03/31 08:54:11;;;;;;;;;;;4.30;99.90;;;;;;5036556;28;19975;-80
2022/03/31 08:56:37;;;;;;;;;;;4.30;99.90;;;;;;5015790;28;19968;-79
2022/03/31 08:59:03;;;;;;;;;;;4.40;99.90;;;;;;5037426;28;19971;-79
2022/03/31 09:01:30;;;;;;;;;;;4.40;99.90;;;;;;5035324;28;19924;-81
2022/03/31 09:03:56;;;;;;;;;;;4.40;99.90;;;;;;5036838;28;19920;-79
2022/03/31 09:06:23;;;;;;;;;;;4.30;99.90;;;;;;5037633;28;20428;-78
2022/03/31 09:08:59;;;;;;;;;;;4.30;99.90;;;;;;5003295;28;20068;-78
2022/03/31 09:11:34;;;;;;;;;;;4.30;99.90;;;;;;5036634;28;19921;-77
2022/03/31 09:14:02;;;;;;;;;;;4.30;99.90;;;;;;5037580;28;19971;-79
2022/03/31 09:16:30;;;;;;;;;;;4.30;99.90;;;;;;5034677;28;19983;-78
2022/03/31 09:19:00;;;;;;;;;;;4.20;99.90;;;;;;5037416;28;19920;-78
2022/03/31 09:21:26;;;;;;;;;;;4.30;99.90;;;;;;5037863;28;19971;-78
2022/03/31 09:23:51;;;;;;;;;;;4.30;99.90;;;;;;5037165;28;19956;-79
2022/03/31 09:26:18;;;;;;;;;;;4.30;99.90;;;;;;5037722;28;19920;-78
2022/03/31 09:28:44;;;;;;;;;;;4.30;99.90;;;;;;5037714;28;19982;-78
2022/03/31 09:31:10;;;;;;;;;;;4.40;99.90;;;;;;5036310;28;20285;-79
2022/03/31 09:33:39;;;;;;;;;;;4.40;99.90;;;;;;5036738;28;19920;-78
2022/03/31 09:36:05;;;;;;;;;;;4.40;99.90;;;;;;5035710;28;19921;-79
2022/03/31 09:38:32;;;;;;;;;;;4.40;99.90;;;;;;5047223;28;19921;-77
2022/03/31 09:40:58;;;;;;;;;;;4.40;99.90;;;;;;5035917;28;19925;-78
2022/03/31 09:43:24;;;;;;;;;;;4.40;99.90;;;;;;5035202;28;19924;-78
2022/03/31 09:45:50;;;;;;;;;;;4.40;99.90;;;;;;5015132;28;20480;-76
2022/03/31 09:48:19;;;;;;;;;;;4.40;99.90;;;;;;5033580;28;20315;-89
2022/03/31 09:50:45;;;;;;;;;;;4.30;99.90;;;;;;5030246;28;19927;-75
2022/03/31 09:53:11;;;;;;;;;;;4.40;99.90;;;;;;5034553;28;19924;-76
2022/03/31 09:55:38;;;;;;;;;;;4.40;99.90;;;;;;5032134;28;19971;-77
2022/03/31 09:58:05;;;;;;;;;;;4.40;99.90;;;;;;5017806;28;20349;-76
2022/03/31 10:00:31;;;;;;;;;;;4.30;99.90;;;;;;5031091;28;19921;-75
2022/03/31 10:02:59;;;;;;;;;;;4.30;99.90;;;;;;5018980;28;19986;-76
2022/03/31 10:05:26;;;;;;;;;;;4.30;99.90;;;;;;5031850;28;19928;-76
2022/03/31 10:07:52;;;;;;;;;;;4.30;99.90;;;;;;4998608;28;20370;-76
2022/03/31 10:10:18;;;;;;;;;;;4.30;99.90;;;;;;5021542;28;19925;-75
2022/03/31 10:12:50;;;;;;;;;;;4.30;99.90;;;;;;5018108;28;19951;-75
2022/03/31 10:15:28;;;;;;;;;;;4.40;99.90;;;;;;5037113;28;19921;-78
2022/03/31 10:17:54;;;;;;;;;;;4.40;99.90;;;;;;5023647;28;19928;-78
2022/03/31 10:20:21;;;;;;;;;;;4.50;99.90;;;;;;5045687;28;19974;-76
2022/03/31 10:25:57;;;;;;;;;;;4.60;99.90;;;;;;5035249;28;19920;-76
2022/03/31 10:28:23;;;;;;;;;;;4.70;99.90;;;;;;5013820;28;19925;-77
2022/03/31 10:30:56;;;;;;;;;;;4.70;99.90;;;;;;5025115;28;19925;-77
2022/03/31 10:33:38;;;;;;;;;;;4.70;99.90;;;;;;4973216;28;1097454;-76
2022/03/31 10:36:05;;;;;;;;;;;4.70;99.90;;;;;;5035518;28;20415;-77
2022/03/31 10:38:33;;;;;;;;;;;4.60;99.90;;;;;;5034703;28;19928;-77
2022/03/31 10:41:00;;;;;;;;;;;4.70;99.90;;;;;;5032570;28;19921;-78
2022/03/31 10:43:27;;;;;;;;;;;4.70;99.90;;;;;;5050613;28;20258;-74
2022/03/31 10:45:54;;;;;;;;;;;4.80;99.90;;;;;;5031240;28;20019;-76
2022/03/31 10:48:24;;;;;;;;;;;4.70;99.90;;;;;;5025276;28;19927;-75
2022/03/31 10:51:04;;;;;;;;;;;4.70;99.90;;;;;;5035166;28;20342;-75
2022/03/31 10:53:30;;;;;;;;;;;4.70;99.90;;;;;;5036411;28;19920;-77
2022/03/31 10:55:57;;;;;;;;;;;4.70;99.90;;;;;;5023875;28;19921;-77
2022/03/31 10:58:27;;;;;;;;;;;4.60;99.90;;;;;;5035095;28;19920;-79
2022/03/31 11:01:00;;;;;;;;;;;4.40;99.90;;;;;;5036477;28;19925;-77
2022/03/31 11:03:26;;;;;;;;;;;4.40;99.90;;;;;;5034015;28;19971;-77
2022/03/31 11:05:53;;;;;;;;;;;4.30;99.90;;;;;;5009597;28;19921;-78
2022/03/31 11:08:18;;;;;;;;;;;4.20;99.90;;;;;;5000207;28;19971;-76
2022/03/31 11:10:49;;;;;;;;;;;4.20;99.90;;;;;;5003011;28;19968;-77
2022/03/31 11:13:16;;;;;;;;;;;4.10;99.90;;;;;;5033296;28;19982;-77
2022/03/31 11:16:04;;;;;;;;;;;4.10;99.90;;;;;;5020960;28;19943;-76
2022/03/31 11:18:30;;;;;;;;;;;4.00;99.90;;;;;;5016495;28;19976;-76
2022/03/31 11:20:59;;;;;;;;;;;3.90;99.90;;;;;;5035031;28;20396;-77
2022/03/31 11:23:26;;;;;;;;;;;3.90;99.90;;;;;;5035322;28;19925;-76
2022/03/31 11:25:52;;;;;;;;;;;3.80;99.90;;;;;;5026875;28;19944;-81
2022/03/31 11:28:17;;;;;;;;;;;3.80;99.90;;;;;;5022703;28;20373;-79
2022/03/31 11:30:43;;;;;;;;;;;3.80;99.90;;;;;;5033585;28;20377;-78
2022/03/31 11:33:10;;;;;;;;;;;3.80;99.90;;;;;;5034166;28;19927;-79
2022/03/31 11:35:39;;;;;;;;;;;3.80;99.90;;;;;;5015124;28;19921;-77
2022/03/31 11:38:06;;;;;;;;;;;3.90;99.90;;;;;;5006901;28;19970;-78
2022/03/31 11:40:34;;;;;;;;;;;3.80;99.90;;;;;;5047569;28;19978;-80
2022/03/31 11:43:00;;;;;;;;;;;3.80;99.90;;;;;;5034600;28;20279;-78
2022/03/31 11:45:26;;;;;;;;;;;3.80;99.90;;;;;;5031255;28;19924;-78
2022/03/31 11:47:56;;;;;;;;;;;3.70;99.90;;;;;;5017275;28;20046;-78
2022/03/31 11:50:21;;;;;;;;;;;3.60;99.90;;;;;;5018734;28;19935;-78
2022/03/31 11:52:48;;;;;;;;;;;3.60;99.90;;;;;;5032429;28;19921;-77
2022/03/31 11:55:14;;;;;;;;;;;3.50;99.90;;;;;;5031035;28;19968;-78
2022/03/31 11:57:49;;;;;;;;;;;3.50;99.90;;;;;;5031294;28;19971;-78
2022/03/31 12:00:15;;;;;;;;;;;3.40;99.90;;;;;;5032602;28;20328;-79
2022/03/31 12:02:40;;;;;;;;;;;3.30;99.90;;;;;;5017367;28;19973;-78
2022/03/31 12:05:11;;;;;;;;;;;3.40;99.90;;;;;;5015798;28;19940;-78
2022/03/31 12:07:37;;;;;;;;;;;3.20;99.90;;;;;;5033963;28;20011;-77
2022/03/31 12:10:03;;;;;;;;;;;3.20;99.90;;;;;;5031423;28;20380;-77
2022/03/31 12:12:28;;;;;;;;;;;3.20;99.90;;;;;;5032541;28;19921;-78
2022/03/31 12:14:56;;;;;;;;;;;3.10;99.90;;;;;;5028342;28;19977;-77
2022/03/31 12:17:21;;;;;;;;;;;3.20;99.90;;;;;;5011680;28;19921;-77
2022/03/31 12:19:47;;;;;;;;;;;3.20;99.90;;;;;;5033365;28;19928;-77
2022/03/31 12:22:14;;;;;;;;;;;3.30;99.90;;;;;;5017515;28;19931;-78
2022/03/31 12:24:50;;;;;;;;;;;3.40;99.90;;;;;;5034006;28;19920;-77
2022/03/31 12:27:17;;;;;;;;;;;3.40;99.90;;;;;;5034890;28;20120;-76
2022/03/31 12:29:43;;;;;;;;;;;3.40;99.90;;;;;;5018256;28;19972;-80
2022/03/31 12:32:12;;;;;;;;;;;3.30;99.90;;;;;;5015586;28;20432;-87
2022/03/31 12:34:39;;;;;;;;;;;3.40;99.90;;;;;;5017311;28;20355;-78
2022/03/31 12:37:06;;;;;;;;;;;3.40;99.90;;;;;;5051289;28;19931;-78
2022/03/31 12:39:42;;;;;;;;;;;3.40;99.90;;;;;;5024602;28;19925;-77
2022/03/31 12:42:10;;;;;;;;;;;3.30;99.90;;;;;;5033952;28;19943;-79
2022/03/31 12:44:38;;;;;;;;;;;3.20;99.90;;;;;;5034268;28;19921;-78
2022/03/31 12:47:04;;;;;;;;;;;3.20;99.90;;;;;;5034487;28;20373;-78
2022/03/31 12:49:34;;;;;;;;;;;3.10;99.90;;;;;;5032908;28;19920;-77
2022/03/31 12:52:23;;;;;;;;;;;3.10;99.90;;;;;;5032360;28;19920;-79
2022/03/31 12:54:50;;;;;;;;;;;3.10;99.90;;;;;;5005108;28;19924;-77
2022/03/31 12:57:21;;;;;;;;;;;2.90;99.90;;;;;;5015716;28;19925;-76
2022/03/31 12:59:59;;;;;;;;;;;3.00;99.90;;;;;;5025166;28;19967;-83
2022/03/31 13:02:24;;;;;;;;;;;2.90;99.90;;;;;;5005778;28;20024;-79
2022/03/31 13:04:50;;;;;;;;;;;2.90;99.90;;;;;;4998051;28;20008;-77
2022/03/31 13:07:17;;;;;;;;;;;2.80;99.90;;;;;;5026308;28;20300;-77
2022/03/31 13:09:43;;;;;;;;;;;2.90;99.90;;;;;;5044663;28;19921;-78
2022/03/31 13:12:09;;;;;;;;;;;2.90;99.90;;;;;;5033397;28;19943;-78
2022/03/31 13:14:35;;;;;;;;;;;2.80;99.90;;;;;;5054506;28;19964;-78
2022/03/31 13:17:01;;;;;;;;;;;2.70;99.90;;;;;;5032239;28;20404;-77
2022/03/31 13:19:27;;;;;;;;;;;2.60;99.90;;;;;;5054384;28;19925;-77
2022/03/31 13:21:53;;;;;;;;;;;2.60;99.90;;;;;;5019979;28;19921;-77
2022/03/31 13:24:18;;;;;;;;;;;2.60;99.90;;;;;;5035104;28;19920;-78
2022/03/31 13:26:44;;;;;;;;;;;2.50;99.90;;;;;;5037254;28;19924;-78
2022/03/31 13:29:11;;;;;;;;;;;2.50;99.90;;;;;;5011987;28;20392;-78
2022/03/31 13:31:40;;;;;;;;;;;2.50;99.90;;;;;;5015157;28;20362;-78
2022/03/31 13:34:09;;;;;;;;;;;2.40;99.90;;;;;;5036604;28;20000;-78
2022/03/31 13:36:36;;;;;;;;;;;2.40;99.90;;;;;;5020753;28;19976;-78
2022/03/31 13:39:04;;;;;;;;;;;2.30;99.90;;;;;;5021108;28;19920;-79
2022/03/31 13:41:30;;;;;;;;;;;2.40;99.90;;;;;;5019214;28;19928;-79
2022/03/31 13:43:56;;;;;;;;;;;2.20;99.90;;;;;;5036954;28;19921;-79
2022/03/31 13:46:21;;;;;;;;;;;2.20;99.90;;;;;;5020668;28;19920;-82
2022/03/31 13:48:47;;;;;;;;;;;2.20;99.90;;;;;;5003978;28;20006;-79
2022/03/31 13:51:13;;;;;;;;;;;2.10;99.90;;;;;;5036673;28;19932;-79
2022/03/31 13:53:45;;;;;;;;;;;2.10;99.90;;;;;;5054287;28;20331;-79
2022/03/31 13:56:14;;;;;;;;;;;2.00;99.90;;;;;;5036983;28;19920;-77
2022/03/31 14:01:25;;;;;;;;;;;2.00;99.90;;;;;;5036695;28;19925;-77
2022/03/31 14:03:55;;;;;;;;;;;2.00;99.90;;;;;;5019668;28;19921;-77
2022/03/31 14:06:21;;;;;;;;;;;2.00;99.90;;;;;;5036911;28;19921;-77
2022/03/31 14:08:50;;;;;;;;;;;1.90;99.90;;;;;;5036679;28;19935;-77
2022/03/31 14:11:16;;;;;;;;;;;1.90;99.90;;;;;;5036412;28;19920;-77
2022/03/31 14:13:42;;;;;;;;;;;1.90;99.90;;;;;;5036053;28;19920;-78
2022/03/31 14:16:08;;;;;;;;;;;1.90;99.90;;;;;;5020413;28;20022;-78
2022/03/31 14:18:36;;;;;;;;;;;1.90;99.90;;;;;;5019690;28;20468;-78
2022/03/31 14:21:02;;;;;;;;;;;1.90;99.90;;;;;;5036860;28;19920;-78
2022/03/31 14:23:28;;;;;;;;;;;1.90;99.90;;;;;;5034295;28;19928;-78
2022/03/31 14:25:58;;;;;;;;;;;1.80;99.90;;;;;;5015829;28;19924;-77
2022/03/31 14:28:37;;;;;;;;;;;1.80;99.90;;;;;;5019350;28;19972;-77
2022/03/31 14:31:04;;;;;;;;;;;1.90;99.90;;;;;;5036412;28;20002;-77
2022/03/31 14:33:30;;;;;;;;;;;1.90;99.90;;;;;;5033969;28;20393;-77
2022/03/31 14:35:56;;;;;;;;;;;1.90;99.90;;;;;;5053947;28;20042;-77